International Virtual Aviation Organisation

Russian Federation and Kazakhstan MCD

 
UUDL 271600Z 11004MPS 7000 -SNRA OVC007 00/M01 Q1012 R23/550338 NOSIG RMK QFE751
QNH:(hPa/inHg/mmHg)1012 / 29.88 / 759
QFE:(hPa/inHg/mmHg)1001 / 29.55 / 751
Temperature0
Dew Point-1
Visibility7000
WeatherLight Snow Rain
Cloud CoverOVC (700);
Transition Height700 m./2700 ft.
Transition LevelFL50
SQUAWK